Time;durP1;ratioP1;P1;durP2;ratioP2;P2;SDS_P1;SDS_P2;PMS_P1;PMS_P2;Temp;Humidity;BMP_temperature;BMP_pressure;BME280_temperature;BME280_humidity;BME280_pressure;Samples;Min_cycle;Max_cycle;Signal;HPM_P1;HPM_P2
2023/02/14 00:13:31;;;;;;;26.92;17.73;;;;;;;1.87;61.00;96195.19;5108431;27;20501;-76
2023/02/14 00:15:56;;;;;;;27.83;18.80;;;;;;;1.64;61.08;96198.31;5090590;28;20036;-76
2023/02/14 00:18:22;;;;;;;23.50;14.88;;;;;;;1.54;61.24;96205.41;5087677;28;20032;-76
2023/02/14 00:20:47;;;;;;;27.08;16.55;;;;;;;1.56;61.12;96206.19;5087158;28;20032;-76
2023/02/14 00:23:12;;;;;;;25.10;16.08;;;;;;;1.39;61.08;96196.38;5069935;28;20055;-76
2023/02/14 00:25:38;;;;;;;25.95;16.48;;;;;;;1.37;61.38;96205.00;5086357;28;20130;-76
2023/02/14 00:28:03;;;;;;;24.10;15.52;;;;;;;1.31;62.09;96196.59;5086809;28;20033;-76
2023/02/14 00:30:29;;;;;;;26.45;15.73;;;;;;;1.21;61.66;96168.69;5050009;28;20039;-77
2023/02/14 00:32:54;;;;;;;24.00;15.02;;;;;;;1.21;62.15;96189.16;5086301;28;20044;-76
2023/02/14 00:35:20;;;;;;;23.23;15.05;;;;;;;1.16;62.56;96202.06;5069856;28;20515;-76
2023/02/14 00:37:46;;;;;;;21.17;15.05;;;;;;;1.19;62.40;96207.09;5086849;28;20497;-76
2023/02/14 00:40:12;;;;;;;27.08;15.15;;;;;;;1.22;62.22;96203.63;5060889;28;20038;-76
2023/02/14 00:42:37;;;;;;;24.75;15.70;;;;;;;1.18;62.33;96202.03;5086278;28;20040;-76
2023/02/14 00:45:03;;;;;;;21.95;14.48;;;;;;;1.10;62.55;96179.19;5086432;28;20028;-76
2023/02/14 00:47:28;;;;;;;23.10;14.68;;;;;;;1.25;62.35;96196.72;5085519;28;20051;-76
2023/02/14 00:49:53;;;;;;;22.15;14.68;;;;;;;1.38;62.43;96204.94;5086371;28;20033;-76
2023/02/14 00:52:19;;;;;;;22.92;14.75;;;;;;;1.35;62.25;96192.22;5078917;28;20086;-76
2023/02/14 00:54:44;;;;;;;21.75;14.60;;;;;;;1.35;62.91;96194.78;5086019;28;20493;-76
2023/02/14 00:57:10;;;;;;;21.60;14.57;;;;;;;1.38;61.93;96181.06;5085548;28;20446;-76
2023/02/14 00:59:35;;;;;;;24.85;15.38;;;;;;;1.43;62.17;96179.22;5086226;28;20406;-76
2023/02/14 01:02:01;;;;;;;22.08;14.57;;;;;;;1.32;61.89;96159.84;5085838;28;20417;-76
2023/02/14 01:04:26;;;;;;;24.23;15.07;;;;;;;1.39;62.18;96180.19;5069113;28;20039;-76
2023/02/14 01:06:52;;;;;;;21.35;14.75;;;;;;;1.38;62.37;96175.94;5084936;28;20032;-76
2023/02/14 01:09:17;;;;;;;23.38;15.20;;;;;;;1.39;61.49;96180.19;5065297;28;20048;-76
2023/02/14 01:11:42;;;;;;;21.52;14.82;;;;;;;1.34;61.34;96177.75;5068610;28;20052;-76
2023/02/14 01:14:08;;;;;;;23.42;14.77;;;;;;;1.36;61.65;96177.69;5073857;28;20029;-76
2023/02/14 01:16:35;;;;;;;22.50;15.10;;;;;;;1.44;61.55;96175.78;5053714;28;20033;-76
2023/02/14 01:19:00;;;;;;;22.73;15.88;;;;;;;1.40;61.08;96181.88;5053596;28;20021;-76
2023/02/14 01:21:28;;;;;;;24.02;15.88;;;;;;;1.47;61.11;96181.66;5070107;28;20043;-77
2023/02/14 01:23:55;;;;;;;24.50;15.40;;;;;;;1.45;61.16;96175.75;5061754;28;20037;-76
2023/02/14 01:26:21;;;;;;;24.60;15.10;;;;;;;1.43;61.76;96172.38;5066202;28;20037;-76
2023/02/14 01:28:46;;;;;;;25.92;15.57;;;;;;;1.48;61.22;96167.16;5052283;28;20456;-76
2023/02/14 01:31:32;;;;;;;25.27;15.35;;;;;;;1.45;61.54;96162.94;5049584;28;20048;-76
2023/02/14 01:33:58;;;;;;;23.25;15.15;;;;;;;1.47;61.29;96162.91;5052849;28;20508;-76
2023/02/14 01:36:25;;;;;;;28.30;16.20;;;;;;;1.40;61.61;96146.03;5065627;28;20029;-76
2023/02/14 01:38:52;;;;;;;24.40;14.80;;;;;;;1.63;60.64;96160.78;5096776;28;20421;-76
2023/02/14 01:41:18;;;;;;;25.48;16.13;;;;;;;1.59;60.79;96160.03;5065594;28;20039;-76
2023/02/14 01:44:27;;;;;;;23.48;14.45;;;;;;;1.57;61.23;96148.97;5049365;28;20116;-76
2023/02/14 01:46:52;;;;;;;23.92;15.88;;;;;;;1.44;61.09;96127.97;5052328;28;20521;-76
2023/02/14 01:49:24;;;;;;;23.13;15.60;;;;;;;1.51;60.86;96144.03;5050077;28;20029;-74
2023/02/14 01:51:56;;;;;;;29.42;16.10;;;;;;;1.42;60.99;96123.75;5066565;28;20032;-79
2023/02/14 01:54:23;;;;;;;23.73;15.50;;;;;;;1.33;61.07;96128.22;5085123;28;20397;-75
2023/02/14 01:56:50;;;;;;;22.98;15.57;;;;;;;1.49;61.21;96133.81;5099013;28;20042;-76
2023/02/14 01:59:18;;;;;;;27.23;17.02;;;;;;;1.47;60.92;96125.31;5069462;28;20024;-76
2023/02/14 02:01:44;;;;;;;29.27;15.20;;;;;;;1.24;61.00;96090.06;5066192;28;20033;-76
2023/02/14 02:04:12;;;;;;;25.13;14.75;;;;;;;1.22;60.45;96102.06;5080651;28;20033;-76
2023/02/14 02:06:40;;;;;;;24.88;15.75;;;;;;;1.44;60.96;96119.44;5064922;28;20029;-76
2023/02/14 02:09:19;;;;;;;24.58;14.95;;;;;;;1.48;60.40;96114.22;5051287;28;20525;-76
2023/02/14 02:11:44;;;;;;;26.80;15.93;;;;;;;1.55;60.50;96118.28;5066181;28;20061;-76
2023/02/14 02:14:15;;;;;;;24.48;16.00;;;;;;;1.34;61.22;96132.50;5066757;28;20409;-76
2023/02/14 02:16:58;;;;;;;24.27;15.40;;;;;;;1.43;60.73;96131.41;5066427;28;20140;-75
2023/02/14 02:19:30;;;;;;;25.25;15.30;;;;;;;1.50;60.94;96132.06;5071587;28;20028;-76
2023/02/14 02:21:58;;;;;;;;;;;;;;;1.50;60.73;96132.91;5067895;28;20503;-76
2023/02/14 02:24:35;;;;;;;24.35;14.30;;;;;;;1.39;61.41;96131.53;5067674;28;19916;-76
2023/02/14 02:27:24;;;;;;;25.55;14.90;;;;;;;1.42;60.98;96119.50;5082642;28;20410;-76
2023/02/14 02:30:11;;;;;;;23.77;14.85;;;;;;;1.52;60.81;96113.22;5084352;28;20062;-76
2023/02/14 02:32:48;;;;;;;27.38;16.30;;;;;;;1.38;61.44;96101.69;5069167;28;20033;-76
2023/02/14 02:35:26;;;;;;;25.10;16.02;;;;;;;1.33;60.70;96094.09;5069664;28;20078;-76
2023/02/14 02:38:36;;;;;;;23.52;14.77;;;;;;;1.50;60.72;96091.09;5065583;28;20108;-75
2023/02/14 02:41:07;;;;;;;25.50;15.90;;;;;;;1.43;60.91;96085.31;5051342;28;20119;-76
2023/02/14 02:43:55;;;;;;;26.20;15.55;;;;;;;1.53;60.48;96094.44;5084494;28;20032;-77
2023/02/14 02:46:46;;;;;;;22.02;14.25;;;;;;;1.51;60.22;96080.81;5043483;28;20094;-75
2023/02/14 02:53:01;;;;;;;22.75;14.88;;;;;;;1.46;60.45;96074.97;5094459;28;20108;-76
2023/02/14 02:54:50;;;;;;;32.92;14.43;;;;;;;1.53;60.53;96070.53;5052398;28;20031;-76
2023/02/14 02:57:27;;;;;;;24.30;14.65;;;;;;;1.46;60.29;96071.59;5048081;28;20066;-76
2023/02/14 02:59:52;;;;;;;20.60;13.82;;;;;;;1.55;60.30;96084.97;5053530;28;20070;-75
2023/02/14 03:02:29;;;;;;;21.75;13.85;;;;;;;1.42;60.54;96077.66;5066606;28;20041;-76
2023/02/14 03:04:57;;;;;;;23.08;13.77;;;;;;;1.24;60.45;96064.47;5081700;28;20032;-75
2023/02/14 03:07:33;;;;;;;20.77;13.30;;;;;;;1.43;60.34;96098.13;5065165;28;20037;-75
2023/02/14 03:10:18;;;;;;;25.35;14.63;;;;;;;1.45;60.35;96080.13;5067619;28;20032;-77
2023/02/14 03:13:10;;;;;;;25.25;13.35;;;;;;;1.49;59.89;96079.19;5066232;28;20048;-77
2023/02/14 03:16:03;;;;;;;25.40;14.05;;;;;;;1.16;60.96;96055.31;5065219;28;20525;-77
2023/02/14 03:21:33;;;;;;;22.05;13.40;;;;;;;1.54;60.32;96090.97;5067905;28;20104;-77
2023/02/14 03:24:14;;;;;;;23.60;14.02;;;;;;;1.41;60.57;96091.34;5066042;28;20218;-77
2023/02/14 03:27:01;;;;;;;20.02;13.10;;;;;;;1.34;60.89;96065.09;5050759;28;20086;-77
2023/02/14 03:29:52;;;;;;;21.90;12.80;;;;;;;1.47;60.28;96074.09;5053608;28;20114;-78
2023/02/14 03:32:42;;;;;;;22.60;13.18;;;;;;;1.45;60.25;96062.22;5051902;28;20086;-77
2023/02/14 03:35:27;;;;;;;19.77;12.43;;;;;;;1.46;60.65;96054.50;5051570;28;20028;-77
2023/02/14 03:38:15;;;;;;;23.63;13.82;;;;;;;1.43;60.35;96053.75;5053384;28;20568;-77
2023/02/14 03:40:48;;;;;;;27.55;15.55;;;;;;;1.32;60.62;96054.88;5052305;28;20028;-77
2023/02/14 03:43:31;;;;;;;23.98;13.32;;;;;;;1.30;60.59;96054.06;5049342;28;20491;-77
2023/02/14 03:46:03;;;;;;;23.77;13.40;;;;;;;1.36;60.13;96057.34;5032805;28;20028;-77
2023/02/14 03:48:28;;;;;;;20.67;12.73;;;;;;;1.42;59.94;96063.16;5069843;28;20021;-77
2023/02/14 03:50:54;;;;;;;20.50;12.93;;;;;;;1.21;60.63;96058.59;5051834;28;20032;-77
2023/02/14 03:53:24;;;;;;;21.30;12.82;;;;;;;1.22;60.40;96066.22;5052098;28;20098;-77
2023/02/14 03:56:17;;;;;;;22.15;13.40;;;;;;;1.18;60.89;96062.06;5069715;28;20024;-77
2023/02/14 03:58:47;;;;;;;21.98;12.88;;;;;;;0.97;60.97;96027.63;5070102;28;20114;-75
2023/02/14 04:01:15;;;;;;;23.73;13.48;;;;;;;1.18;60.98;96044.16;5052116;28;20035;-77
2023/02/14 04:03:41;;;;;;;21.27;13.07;;;;;;;1.07;61.44;96020.56;5053293;28;20024;-77
2023/02/14 04:06:07;;;;;;;23.52;12.85;;;;;;;1.14;60.57;96008.44;5052050;28;20033;-77
2023/02/14 04:08:32;;;;;;;24.15;13.68;;;;;;;1.01;61.30;96025.84;5052214;28;20115;-77
2023/02/14 04:10:59;;;;;;;23.90;13.32;;;;;;;1.09;60.38;96000.91;5069514;28;20032;-77
2023/02/14 04:13:24;;;;;;;22.80;13.40;;;;;;;1.02;61.01;95999.38;5052774;28;20509;-78
2023/02/14 04:15:50;;;;;;;25.40;14.45;;;;;;;1.09;60.93;96031.63;5069461;28;20112;-77
2023/02/14 04:20:59;;;;;;;22.55;12.90;;;;;;;1.09;60.41;96024.78;5070507;28;20125;-77
2023/02/14 04:23:25;;;;;;;25.27;14.75;;;;;;;1.09;60.60;96049.53;5052603;28;20033;-77
2023/02/14 04:25:50;;;;;;;29.35;17.75;;;;;;;1.08;60.26;96040.97;5052561;28;20036;-77
2023/02/14 04:28:16;;;;;;;21.90;13.38;;;;;;;1.13;60.35;96035.75;5068214;28;20040;-77
2023/02/14 04:30:41;;;;;;;21.80;13.10;;;;;;;1.19;60.26;96035.59;5052819;28;20099;-77
2023/02/14 04:33:07;;;;;;;22.13;13.55;;;;;;;1.14;60.39;96032.31;5069228;28;20137;-77
2023/02/14 04:35:33;;;;;;;27.83;15.90;;;;;;;1.00;60.98;96039.50;5068108;28;20437;-77
2023/02/14 04:38:00;;;;;;;21.70;13.15;;;;;;;1.01;60.56;96026.69;5052608;28;20559;-77
2023/02/14 04:40:25;;;;;;;22.30;14.30;;;;;;;1.09;60.62;96022.22;5068926;28;20103;-77
2023/02/14 04:42:51;;;;;;;35.50;20.02;;;;;;;0.82;60.74;96008.41;5070508;28;20029;-77
2023/02/14 04:45:16;;;;;;;27.90;15.82;;;;;;;1.07;60.49;96020.56;5051361;28;20037;-77
2023/02/14 04:47:41;;;;;;;29.52;16.05;;;;;;;0.97;61.02;96016.56;5069114;28;20032;-77
2023/02/14 04:50:07;;;;;;;24.35;16.02;;;;;;;1.00;60.59;96014.75;5073048;28;20028;-77
2023/02/14 04:52:33;;;;;;;22.77;14.07;;;;;;;1.05;60.43;96006.97;5074377;28;20043;-77
2023/02/14 04:54:58;;;;;;;19.83;12.65;;;;;;;1.09;59.79;96013.69;5071508;28;20051;-77
2023/02/14 04:57:23;;;;;;;18.83;11.40;;;;;;;1.16;59.90;96004.97;5072263;28;20029;-77
2023/02/14 04:59:49;;;;;;;19.15;13.23;;;;;;;1.13;60.32;96014.44;5074055;28;20047;-77
2023/02/14 05:02:14;;;;;;;29.08;16.00;;;;;;;1.06;60.01;96012.06;5074162;28;20060;-77
2023/02/14 05:04:40;;;;;;;19.13;12.77;;;;;;;1.06;60.11;96014.63;5071960;28;20089;-77
2023/02/14 05:07:05;;;;;;;19.65;12.05;;;;;;;1.05;59.63;96012.91;5072233;28;20041;-77
2023/02/14 05:09:31;;;;;;;18.70;11.60;;;;;;;1.02;60.03;96002.75;5073352;28;20036;-77
2023/02/14 05:11:56;;;;;;;20.02;12.93;;;;;;;1.09;59.70;96024.78;5071332;28;20056;-77
2023/02/14 05:14:22;;;;;;;17.73;11.35;;;;;;;1.05;59.92;96005.25;5071616;28;20025;-77
2023/02/14 05:16:47;;;;;;;15.25;10.27;;;;;;;1.09;59.57;96003.47;5038821;28;20103;-77
2023/02/14 05:19:13;;;;;;;18.40;11.30;;;;;;;0.96;60.27;96004.66;5073737;28;20025;-77
2023/02/14 05:21:38;;;;;;;25.50;15.10;;;;;;;1.00;60.07;96013.91;5072138;28;20033;-77
2023/02/14 05:24:04;;;;;;;18.42;11.43;;;;;;;1.04;59.72;96005.28;5071705;28;20032;-77
2023/02/14 05:26:29;;;;;;;18.27;11.27;;;;;;;0.99;60.08;96005.41;5071915;28;20036;-76
2023/02/14 05:28:55;;;;;;;20.70;12.27;;;;;;;1.03;59.63;96001.03;5038380;28;20426;-77
2023/02/14 05:31:20;;;;;;;19.48;12.10;;;;;;;1.05;59.43;95999.28;5054972;28;20434;-77
2023/02/14 05:33:46;;;;;;;19.67;11.73;;;;;;;1.11;59.36;96006.78;5072475;28;20418;-77
2023/02/14 05:36:11;;;;;;;20.02;11.73;;;;;;;1.07;59.82;96005.22;5072437;28;20099;-77
2023/02/14 05:38:37;;;;;;;23.88;13.38;;;;;;;0.98;59.65;96003.75;5052583;28;20033;-77
2023/02/14 05:41:02;;;;;;;22.00;13.70;;;;;;;1.02;59.85;96012.16;5053385;28;20025;-77
2023/02/14 05:43:29;;;;;;;24.80;12.80;;;;;;;0.93;60.47;95991.94;5071673;28;20490;-77
2023/02/14 05:45:55;;;;;;;21.65;12.15;;;;;;;0.97;60.07;95990.97;5055187;28;20024;-77
2023/02/14 05:48:20;;;;;;;19.55;11.90;;;;;;;1.14;59.67;96000.75;5055220;28;20031;-77
2023/02/14 05:50:45;;;;;;;20.00;11.85;;;;;;;1.14;59.24;95996.47;5070757;28;20520;-77
2023/02/14 05:53:11;;;;;;;21.85;12.75;;;;;;;0.97;59.74;95990.97;5071655;28;20037;-77
2023/02/14 05:55:37;;;;;;;16.95;10.65;;;;;;;1.01;60.30;95990.84;5051230;28;20028;-77
2023/02/14 05:58:04;;;;;;;17.23;11.27;;;;;;;1.07;60.40;96006.03;5064403;28;20363;-77
2023/02/14 06:00:30;;;;;;;20.88;12.23;;;;;;;1.07;60.44;96005.22;5051004;28;20119;-77
2023/02/14 06:02:58;;;;;;;19.42;11.68;;;;;;;1.16;59.71;95999.84;5051345;28;20043;-77
2023/02/14 06:05:23;;;;;;;17.35;11.60;;;;;;;1.08;59.87;95979.56;5066861;28;20045;-77
2023/02/14 06:07:51;;;;;;;20.13;12.38;;;;;;;1.12;59.63;95964.97;5098560;28;20037;-77
2023/02/14 06:10:21;;;;;;;24.58;13.23;;;;;;;1.31;59.68;96004.56;5064840;28;20028;-78
2023/02/14 06:12:50;;;;;;;18.48;11.90;;;;;;;1.20;59.91;95988.66;5066007;28;20056;-77
2023/02/14 06:15:16;;;;;;;18.42;11.05;;;;;;;1.08;60.02;95991.53;5050562;28;20111;-77
2023/02/14 06:17:41;;;;;;;19.40;12.32;;;;;;;1.16;60.09;95999.84;5050212;28;20040;-77
2023/02/14 06:20:10;;;;;;;19.40;12.55;;;;;;;1.10;60.36;95990.59;5066900;28;20040;-77
2023/02/14 06:22:36;;;;;;;17.65;11.90;;;;;;;1.28;59.88;96017.44;5045237;28;20534;-77
2023/02/14 06:25:02;;;;;;;18.80;11.55;;;;;;;1.22;59.94;96009.06;5050437;28;20214;-77
2023/02/14 06:27:29;;;;;;;27.05;16.15;;;;;;;1.42;60.31;96016.19;5062527;28;20067;-77
2023/02/14 06:29:54;;;;;;;28.85;17.88;;;;;;;1.45;59.83;96006.72;5084588;28;20025;-77
2023/02/14 06:32:20;;;;;;;26.38;15.48;;;;;;;1.24;59.21;95963.78;5059263;28;20041;-77
2023/02/14 06:34:45;;;;;;;22.33;13.65;;;;;;;1.39;59.23;95993.25;5050493;28;20031;-78
2023/02/14 06:37:11;;;;;;;21.83;13.00;;;;;;;1.37;60.12;95997.59;5049993;28;20028;-77
2023/02/14 06:39:36;;;;;;;21.05;12.82;;;;;;;1.31;60.34;95978.94;5033430;28;20037;-77
2023/02/14 06:42:02;;;;;;;22.02;14.73;;;;;;;1.49;59.89;96010.88;5064344;28;20086;-77
2023/02/14 06:44:27;;;;;;;22.52;13.13;;;;;;;1.34;59.95;96013.88;5034040;28;20033;-77
2023/02/14 06:46:53;;;;;;;22.05;13.77;;;;;;;1.57;59.85;96020.91;5067648;28;20051;-77
2023/02/14 06:49:18;;;;;;;21.48;12.80;;;;;;;1.64;59.32;96019.84;5068061;28;20098;-77
2023/02/14 06:51:46;;;;;;;21.90;13.35;;;;;;;1.65;59.99;96018.13;5068740;28;20047;-77
2023/02/14 06:54:11;;;;;;;22.25;14.10;;;;;;;1.64;60.03;96011.31;5052391;28;20035;-77
2023/02/14 06:56:37;;;;;;;22.95;14.45;;;;;;;1.73;59.96;95990.56;5050912;28;20513;-79
2023/02/14 06:59:02;;;;;;;20.80;13.77;;;;;;;1.67;60.11;96012.09;5050078;28;20715;-81
2023/02/14 07:01:28;;;;;;;25.92;17.15;;;;;;;1.81;59.47;95993.72;5066210;28;20032;-80
2023/02/14 07:03:53;;;;;;;24.27;15.43;;;;;;;1.93;59.52;96002.78;5050030;28;20032;-78
2023/02/14 07:06:19;;;;;;;22.25;14.55;;;;;;;1.99;59.31;96000.03;5066835;28;20037;-79
2023/02/14 07:08:44;;;;;;;26.10;16.40;;;;;;;2.07;59.06;95992.13;5066416;28;20031;-77
2023/02/14 07:11:10;;;;;;;23.13;13.10;;;;;;;1.86;58.63;95947.47;5063584;28;20044;-78
2023/02/14 07:13:35;;;;;;;19.13;12.70;;;;;;;2.04;59.27;95977.66;5061861;28;20017;-77
2023/02/14 07:16:00;;;;;;;20.00;13.07;;;;;;;2.10;59.58;95982.59;5063478;28;20480;-77
2023/02/14 07:18:26;;;;;;;19.45;12.70;;;;;;;1.97;59.25;95947.97;5065481;28;20020;-76
2023/02/14 07:20:51;;;;;;;19.08;11.82;;;;;;;2.20;59.12;95980.56;5062417;28;20097;-80
2023/02/14 07:23:20;;;;;;;19.02;12.23;;;;;;;2.19;59.54;95984.03;5061667;28;20094;-75
2023/02/14 07:25:45;;;;;;;23.50;13.38;;;;;;;2.04;59.09;95959.72;5065970;28;20024;-81
2023/02/14 07:28:11;;;;;;;21.25;13.25;;;;;;;2.36;59.05;95996.31;5066390;28;20033;-74
2023/02/14 07:30:36;;;;;;;16.35;11.02;;;;;;;2.42;59.00;96003.81;5049490;28;20021;-77
2023/02/14 07:33:02;;;;;;;19.77;11.98;;;;;;;2.39;59.40;95998.78;5064979;28;20082;-77
2023/02/14 07:35:27;;;;;;;22.10;13.38;;;;;;;2.42;59.28;95994.41;5050727;28;20028;-77
2023/02/14 07:37:52;;;;;;;20.70;13.90;;;;;;;2.54;59.19;95998.31;5062701;28;20339;-75
2023/02/14 07:40:21;;;;;;;21.48;14.40;;;;;;;2.27;59.47;95969.25;5077791;28;20036;-74
2023/02/14 07:42:53;;;;;;;25.92;17.55;;;;;;;2.36;59.61;95992.03;5059835;28;20066;-77
2023/02/14 07:45:19;;;;;;;22.65;13.77;;;;;;;2.35;59.81;95984.41;5065401;28;20041;-77
2023/02/14 07:47:52;;;;;;;20.70;14.13;;;;;;;2.44;59.24;95973.81;5095771;27;20041;-77
2023/02/14 07:50:18;;;;;;;21.63;13.85;;;;;;;2.50;59.47;95994.16;5081621;28;20033;-77
2023/02/14 07:52:44;;;;;;;22.65;12.35;;;;;;;2.53;59.61;95999.16;5046378;28;20109;-77
2023/02/14 07:55:10;;;;;;;21.10;13.68;;;;;;;2.57;59.65;96000.78;5061372;28;20081;-77
2023/02/14 07:57:35;;;;;;;22.05;13.40;;;;;;;2.61;59.88;96006.63;5076163;28;20485;-77
2023/02/14 08:00:01;;;;;;;23.25;13.90;;;;;;;2.50;60.41;96008.69;5065885;28;20060;-77
2023/02/14 08:02:26;;;;;;;21.77;13.27;;;;;;;2.63;60.63;96017.69;5061780;28;20117;-77
2023/02/14 08:04:52;;;;;;;22.33;13.32;;;;;;;2.57;60.93;96018.72;5066038;28;20036;-77
2023/02/14 08:07:17;;;;;;;21.92;13.75;;;;;;;2.52;60.94;96020.59;5031046;28;20024;-77
2023/02/14 08:09:43;;;;;;;22.98;14.10;;;;;;;2.56;61.12;96014.47;5048502;28;20098;-77
2023/02/14 08:14:53;;;;;;;18.65;12.00;;;;;;;2.38;62.15;96025.31;5067253;28;20040;-77
2023/02/14 08:17:18;;;;;;;21.25;12.23;;;;;;;2.42;61.94;96011.50;5032158;28;20037;-77
2023/02/14 08:19:43;;;;;;;25.25;15.55;;;;;;;2.49;62.17;96028.41;5066584;28;20032;-77
2023/02/14 08:22:09;;;;;;;24.95;15.40;;;;;;;2.33;62.46;96019.50;5047075;28;20078;-77
2023/02/14 08:24:34;;;;;;;23.83;14.30;;;;;;;2.33;62.99;96028.03;5052859;28;20414;-77
2023/02/14 08:27:00;;;;;;;23.95;13.77;;;;;;;2.35;63.49;96031.38;5070698;28;20040;-77
2023/02/14 08:29:25;;;;;;;22.35;12.32;;;;;;;2.20;64.07;96036.97;5052811;28;20029;-77
2023/02/14 08:31:51;;;;;;;44.05;22.55;;;;;;;2.03;64.20;96019.53;5070185;28;20032;-77
2023/02/14 08:34:17;;;;;;;24.77;13.75;;;;;;;2.24;63.45;96028.31;5053028;28;20036;-77
2023/02/14 08:36:42;;;;;;;22.17;14.50;;;;;;;2.33;63.47;96045.16;5036409;28;20119;-77
2023/02/14 08:39:08;;;;;;;21.80;13.27;;;;;;;2.31;62.83;96034.91;5053100;28;20482;-78
2023/02/14 08:41:34;;;;;;;25.20;13.63;;;;;;;2.46;62.49;96033.63;5052120;28;20062;-77
2023/02/14 08:43:59;;;;;;;26.85;14.73;;;;;;;2.47;62.73;96031.00;5086313;28;20103;-77
2023/02/14 08:46:25;;;;;;;20.17;12.27;;;;;;;2.34;62.84;96039.13;5056745;28;20090;-77
2023/02/14 08:48:52;;;;;;;19.83;12.45;;;;;;;2.40;62.55;96044.91;5086108;28;20056;-77
2023/02/14 08:51:17;;;;;;;21.40;12.65;;;;;;;2.48;62.55;96049.81;5051179;28;20093;-77
2023/02/14 08:53:45;;;;;;;19.55;11.52;;;;;;;2.46;62.91;96036.19;5050907;28;20472;-77
2023/02/14 08:56:12;;;;;;;23.58;13.23;;;;;;;2.46;63.27;96049.84;5052374;28;20121;-77
2023/02/14 08:58:37;;;;;;;32.15;16.30;;;;;;;2.42;63.76;96052.53;5068735;28;20238;-77
2023/02/14 09:01:10;;;;;;;18.83;11.70;;;;;;;2.37;63.66;96039.06;5068357;28;20502;-77
2023/02/14 09:03:35;;;;;;;24.10;14.57;;;;;;;2.48;63.76;96057.50;5050513;28;20033;-77
2023/02/14 09:06:07;;;;;;;21.48;11.65;;;;;;;2.48;63.77;96062.63;5035695;28;20042;-78
2023/02/14 09:08:33;;;;;;;23.08;14.52;;;;;;;2.39;64.00;96053.47;5069145;28;20024;-77
2023/02/14 09:11:08;;;;;;;22.05;13.27;;;;;;;2.45;64.32;96027.66;5070198;28;20109;-77
2023/02/14 09:13:34;;;;;;;25.45;14.38;;;;;;;2.51;63.87;96042.00;5068077;28;20190;-77
2023/02/14 09:16:05;;;;;;;24.52;14.30;;;;;;;2.57;64.45;96029.00;5050749;28;20508;-77
2023/02/14 09:18:30;;;;;;;;;;;;;;;2.51;64.61;96026.63;5069193;28;20368;-77
2023/02/14 09:20:56;;;;;;;19.05;12.25;;;;;;;2.52;64.60;96023.16;5068016;28;20022;-77
2023/02/14 09:23:24;;;;;;;20.70;11.70;;;;;;;2.50;64.51;96031.78;5033606;28;20090;-77
2023/02/14 09:25:50;;;;;;;17.85;10.85;;;;;;;2.37;64.76;96013.41;5071446;28;20029;-77
2023/02/14 09:28:15;;;;;;;36.92;19.08;;;;;;;2.57;64.19;96016.16;5068017;28;20486;-75
2023/02/14 09:30:41;;;;;;;26.85;17.00;;;;;;;2.54;64.29;96029.09;5051203;28;20027;-77
2023/02/14 09:33:06;;;;;;;22.30;13.20;;;;;;;2.42;64.50;96021.75;5066299;28;20409;-77
2023/02/14 09:35:31;;;;;;;19.83;12.05;;;;;;;2.44;64.28;96009.75;5066976;28;20056;-77
2023/02/14 09:37:57;;;;;;;19.20;11.68;;;;;;;2.38;64.07;96008.22;5068116;28;20043;-77
2023/02/14 09:40:23;;;;;;;19.27;12.02;;;;;;;2.60;63.77;96021.19;5049201;28;20411;-77
2023/02/14 09:43:08;;;;;;;20.33;12.05;;;;;;;2.71;64.05;96020.00;5067312;28;20043;-77
2023/02/14 09:45:34;;;;;;;22.08;11.55;;;;;;;2.61;63.76;96012.59;5068197;28;20390;-77
2023/02/14 09:48:09;;;;;;;22.23;12.23;;;;;;;2.99;63.41;96020.75;5052038;28;20040;-77
2023/02/14 09:50:39;;;;;;;23.58;12.82;;;;;;;3.07;62.50;96016.22;5051350;28;20078;-77
2023/02/14 09:53:26;;;;;;;26.38;14.48;;;;;;;3.08;61.98;96007.59;5066436;28;20082;-77
2023/02/14 09:55:57;;;;;;;23.08;13.48;;;;;;;3.17;61.05;95998.75;5070496;28;20028;-77
2023/02/14 09:58:35;;;;;;;21.23;11.98;;;;;;;3.08;61.43;96002.47;5069348;28;20051;-77
2023/02/14 10:01:14;;;;;;;22.20;11.93;;;;;;;2.93;62.15;96005.56;5085266;28;20028;-77
2023/02/14 10:03:45;;;;;;;23.83;12.95;;;;;;;2.92;62.07;95993.59;5083860;28;20434;-77
2023/02/14 10:06:16;;;;;;;28.63;14.35;;;;;;;2.99;61.19;96002.78;5067397;28;20107;-77
2023/02/14 10:09:10;;;;;;;25.77;14.60;;;;;;;2.88;62.26;96000.59;5068686;28;20051;-77
2023/02/14 10:11:35;;;;;;;26.25;13.95;;;;;;;2.73;61.60;95979.72;5065113;28;20137;-77
2023/02/14 10:14:06;;;;;;;25.13;13.27;;;;;;;2.67;61.27;95962.81;5066067;28;20070;-77
2023/02/14 10:16:37;;;;;;;24.35;13.05;;;;;;;2.80;61.79;95999.16;5071596;28;20036;-77
2023/02/14 10:19:06;;;;;;;22.67;12.23;;;;;;;2.88;61.38;95999.75;5067506;28;20041;-77
2023/02/14 10:22:14;;;;;;;22.25;11.73;;;;;;;2.93;60.78;95990.16;5082111;28;20402;-77
2023/02/14 10:24:47;;;;;;;27.95;15.45;;;;;;;3.07;61.05;95990.53;5038911;28;20093;-77
2023/02/14 10:27:31;;;;;;;22.92;12.85;;;;;;;3.05;60.77;95986.34;5033123;28;20032;-77
2023/02/14 10:29:57;;;;;;;21.60;11.52;;;;;;;3.15;59.76;95974.88;5065788;28;20441;-77
2023/02/14 10:32:45;;;;;;;20.30;11.35;;;;;;;3.26;59.68;95975.31;5064933;28;20032;-77
2023/02/14 10:35:33;;;;;;;22.98;11.52;;;;;;;3.11;60.76;95973.28;5065031;28;20037;-77
2023/02/14 10:38:34;;;;;;;19.40;11.52;;;;;;;3.24;59.63;95987.38;5055789;28;20037;-77
2023/02/14 10:41:29;;;;;;;20.83;10.90;;;;;;;3.37;59.09;95977.47;5045485;28;20420;-77
2023/02/14 10:44:20;;;;;;;18.65;11.30;;;;;;;3.38;59.27;95973.19;5065634;28;20040;-77
2023/02/14 10:46:51;;;;;;;19.73;11.50;;;;;;;3.36;58.63;95963.81;5068063;28;20033;-77
2023/02/14 10:49:25;;;;;;;21.95;12.35;;;;;;;3.26;59.59;95977.03;5064596;28;20668;-77
2023/02/14 10:52:06;;;;;;;22.52;11.77;;;;;;;3.20;60.07;95990.09;5064830;28;20040;-77
2023/02/14 10:54:41;;;;;;;22.70;12.07;;;;;;;3.12;59.86;95983.50;5067376;28;20052;-77
2023/02/14 10:57:13;;;;;;;19.90;11.57;;;;;;;2.92;60.09;95975.63;5063897;28;20041;-77
2023/02/14 10:59:49;;;;;;;19.52;10.85;;;;;;;2.95;59.34;95949.84;5084832;28;20032;-77
2023/02/14 11:02:15;;;;;;;21.20;11.55;;;;;;;3.22;59.07;95972.91;5036666;28;20123;-77
2023/02/14 11:04:45;;;;;;;20.45;12.13;;;;;;;3.01;59.69;95983.03;5032459;28;20111;-77
2023/02/14 11:07:14;;;;;;;19.80;11.73;;;;;;;2.82;59.79;95977.69;5046037;28;20110;-77
2023/02/14 11:09:40;;;;;;;19.48;10.75;;;;;;;2.72;61.04;95989.16;5046774;28;20032;-77
2023/02/14 11:12:05;;;;;;;19.58;10.32;;;;;;;2.77;60.27;95971.88;5045380;28;20053;-77
2023/02/14 11:14:36;;;;;;;18.20;10.75;;;;;;;2.74;60.28;95971.16;5030297;28;20021;-77
2023/02/14 11:17:36;;;;;;;24.63;14.23;;;;;;;2.79;60.89;95969.28;5047110;28;20029;-77
2023/02/14 11:20:18;;;;;;;19.73;13.05;;;;;;;2.75;60.55;95977.94;5016404;28;20114;-77
2023/02/14 11:22:44;;;;;;;17.38;9.88;;;;;;;2.69;60.88;95973.84;5065413;28;20045;-77
2023/02/14 11:25:25;;;;;;;18.38;10.48;;;;;;;2.33;61.86;95975.91;5050092;28;20395;-77
2023/02/14 11:28:02;;;;;;;15.80;9.90;;;;;;;2.63;60.89;95963.81;5048863;28;20036;-77
2023/02/14 11:30:38;;;;;;;20.20;11.90;;;;;;;2.56;60.88;95965.72;5048201;28;20123;-77
2023/02/14 11:33:03;;;;;;;21.98;12.15;;;;;;;2.74;60.38;95966.03;5048389;28;20128;-77
2023/02/14 11:35:33;;;;;;;23.33;13.05;;;;;;;2.81;60.07;95947.78;5048327;28;20074;-77
2023/02/14 11:38:03;;;;;;;20.00;11.45;;;;;;;2.61;60.59;95925.34;5032190;28;20090;-77
2023/02/14 11:40:41;;;;;;;19.60;11.85;;;;;;;2.66;59.90;95949.13;5049288;28;20517;-77
2023/02/14 11:43:09;;;;;;;18.92;11.77;;;;;;;2.63;60.51;95954.38;5032803;28;20037;-77
2023/02/14 11:45:36;;;;;;;19.13;11.77;;;;;;;2.49;61.30;95936.03;5050312;28;20120;-77
2023/02/14 11:48:21;;;;;;;23.77;14.15;;;;;;;2.72;59.87;95947.25;5049912;28;20083;-77
2023/02/14 11:50:57;;;;;;;18.90;12.70;;;;;;;2.81;59.41;95939.25;5049902;28;20044;-77
2023/02/14 11:53:25;;;;;;;19.25;11.88;;;;;;;2.82;59.86;95939.19;5050435;28;20037;-77
2023/02/14 11:56:03;;;;;;;18.02;11.18;;;;;;;2.77;59.79;95932.56;5050067;28;20471;-77
2023/02/14 11:58:31;;;;;;;16.88;10.15;;;;;;;2.81;59.01;95916.97;5065373;28;20029;-77
2023/02/14 12:00:57;;;;;;;17.58;10.70;;;;;;;3.02;58.59;95941.06;5033360;28;20136;-77
2023/02/14 12:03:23;;;;;;;16.73;10.07;;;;;;;2.96;58.41;95925.88;5049871;28;20316;-77